createdAt,value
2018-12-20T00:01:18.409Z,101266.77
2018-12-20T00:03:45.781Z,101262.33
2018-12-20T00:06:13.134Z,101267.95
2018-12-20T00:08:40.527Z,101267.12
2018-12-20T00:11:09.133Z,101262.20
2018-12-20T00:13:36.491Z,101264.06
2018-12-20T00:16:03.916Z,101266.88
2018-12-20T00:18:31.332Z,101266.28
2018-12-20T00:20:58.709Z,101256.94
2018-12-20T00:23:26.000Z,101263.68
2018-12-20T00:25:53.232Z,101260.53
2018-12-20T00:28:20.496Z,101253.78
2018-12-20T00:30:47.764Z,101255.81
2018-12-20T00:33:15.362Z,101259.88
2018-12-20T00:35:42.792Z,101256.50
2018-12-20T00:38:10.164Z,101259.70
2018-12-20T00:40:37.830Z,101258.48
2018-12-20T00:43:05.142Z,101252.37
2018-12-20T00:45:32.527Z,101258.66
2018-12-20T00:47:59.975Z,101253.00
2018-12-20T00:50:27.336Z,101259.66
2018-12-20T00:52:55.490Z,101260.13
2018-12-20T00:55:22.865Z,101261.59
2018-12-20T00:57:50.112Z,101259.83
2018-12-20T01:00:18.545Z,101259.38
2018-12-20T01:02:46.034Z,101258.14
2018-12-20T01:05:13.340Z,101253.78
2018-12-20T01:07:40.768Z,101264.78
2018-12-20T01:10:08.387Z,101267.41
2018-12-20T01:12:35.988Z,101266.54
2018-12-20T01:15:05.167Z,101267.27
2018-12-20T01:17:37.592Z,101260.51
2018-12-20T01:20:06.300Z,101263.11
2018-12-20T01:22:33.811Z,101268.30
2018-12-20T01:25:01.244Z,101271.99
2018-12-20T01:27:31.316Z,101269.20
2018-12-20T01:29:58.654Z,101272.83
2018-12-20T01:32:26.032Z,101271.42
2018-12-20T01:34:53.500Z,101280.25
2018-12-20T01:37:20.945Z,101277.53
2018-12-20T01:39:48.372Z,101281.98
2018-12-20T01:42:15.745Z,101280.27
2018-12-20T01:44:43.332Z,101276.52
2018-12-20T01:47:10.787Z,101274.25
2018-12-20T01:49:38.272Z,101273.70
2018-12-20T01:52:05.682Z,101280.69
2018-12-20T01:54:33.065Z,101274.56
2018-12-20T01:57:00.435Z,101281.58
2018-12-20T01:59:27.891Z,101282.67
2018-12-20T02:01:55.470Z,101276.35
2018-12-20T02:04:22.828Z,101283.48
2018-12-20T02:06:50.074Z,101280.22
2018-12-20T02:09:17.396Z,101276.35
2018-12-20T02:11:44.668Z,101273.70
2018-12-20T02:14:11.950Z,101273.38
2018-12-20T02:16:39.206Z,101270.95
2018-12-20T02:19:06.521Z,101268.50
2018-12-20T02:21:33.846Z,101273.23
2018-12-20T02:24:01.300Z,101267.87
2018-12-20T02:26:28.716Z,101265.91
2018-12-20T02:28:56.130Z,101259.59
2018-12-20T02:31:23.472Z,101262.22
2018-12-20T02:33:50.897Z,101256.59
2018-12-20T02:36:18.365Z,101264.98
2018-12-20T02:38:45.565Z,101264.84
2018-12-20T02:41:12.869Z,101263.52
2018-12-20T02:43:40.220Z,101255.95
2018-12-20T02:46:08.791Z,101257.63
2018-12-20T02:48:36.286Z,101255.43
2018-12-20T02:51:03.764Z,101249.08
2018-12-20T02:53:31.226Z,101251.03
2018-12-20T02:55:58.559Z,101252.66
2018-12-20T02:58:26.722Z,101246.16
2018-12-20T03:00:54.025Z,101243.19
2018-12-20T03:03:21.235Z,101247.16
2018-12-20T03:05:48.522Z,101247.02
2018-12-20T03:08:15.762Z,101241.91
2018-12-20T03:10:43.547Z,101241.11
2018-12-20T03:13:11.045Z,101238.62
2018-12-20T03:15:38.493Z,101246.80
2018-12-20T03:18:05.803Z,101245.59
2018-12-20T03:20:33.385Z,101241.83
2018-12-20T03:23:00.766Z,101243.83
2018-12-20T03:25:28.180Z,101246.52
2018-12-20T03:27:55.778Z,101257.98
2018-12-20T03:30:23.123Z,101255.43
2018-12-20T03:32:50.426Z,101252.54
2018-12-20T03:35:18.007Z,101248.78
2018-12-20T03:37:45.269Z,101245.38
2018-12-20T03:40:12.486Z,101239.81
2018-12-20T03:42:40.041Z,101243.44
2018-12-20T03:45:07.563Z,101248.26
2018-12-20T03:47:34.760Z,101242.05
2018-12-20T03:50:02.128Z,101252.83
2018-12-20T03:52:29.610Z,101255.73
2018-12-20T03:54:56.980Z,101250.55
2018-12-20T03:57:24.684Z,101245.52
2018-12-20T03:59:51.986Z,101247.27
2018-12-20T04:05:12.591Z,101249.86
2018-12-20T04:07:40.121Z,101243.48
2018-12-20T04:10:07.612Z,101247.13
2018-12-20T04:12:34.855Z,101252.47
2018-12-20T04:15:02.070Z,101240.41
2018-12-20T04:17:29.713Z,101234.77
2018-12-20T04:19:57.025Z,101239.27
2018-12-20T04:22:24.220Z,101229.37
2018-12-20T04:24:51.437Z,101231.59
2018-12-20T04:27:18.626Z,101230.75
2018-12-20T04:29:45.854Z,101230.35
2018-12-20T04:32:13.304Z,101229.09
2018-12-20T04:34:40.878Z,101228.68
2018-12-20T04:37:08.387Z,101220.98
2018-12-20T04:39:35.883Z,101219.42
2018-12-20T04:42:03.226Z,101219.45
2018-12-20T04:44:30.675Z,101215.53
2018-12-20T04:46:59.592Z,101208.25
2018-12-20T04:49:27.198Z,101214.66
2018-12-20T04:51:54.598Z,101230.70
2018-12-20T04:54:23.192Z,101235.63
2018-12-20T04:56:50.421Z,101231.27
2018-12-20T04:59:18.027Z,101234.53
2018-12-20T05:01:45.477Z,101233.70
2018-12-20T05:04:12.859Z,101229.55
2018-12-20T05:06:40.226Z,101236.04
2018-12-20T05:09:07.622Z,101231.66
2018-12-20T05:11:34.872Z,101236.66
2018-12-20T05:14:02.130Z,101237.26
2018-12-20T05:16:29.462Z,101228.99
2018-12-20T05:18:56.667Z,101233.53
2018-12-20T05:21:23.864Z,101227.44
2018-12-20T05:23:51.514Z,101238.25
2018-12-20T05:26:18.775Z,101237.56
2018-12-20T05:28:46.010Z,101236.47
2018-12-20T05:31:13.313Z,101239.21
2018-12-20T05:33:40.689Z,101230.04
2018-12-20T05:36:08.042Z,101237.05
2018-12-20T05:38:35.391Z,101237.22
2018-12-20T05:41:02.768Z,101236.91
2018-12-20T05:43:30.224Z,101231.10
2018-12-20T05:46:04.398Z,101231.02
2018-12-20T05:48:26.773Z,101237.16
2018-12-20T05:50:54.070Z,101232.63
2018-12-20T05:53:21.466Z,101235.84
2018-12-20T05:55:48.784Z,101242.94
2018-12-20T05:58:16.193Z,101236.87
2018-12-20T06:00:43.413Z,101230.79
2018-12-20T06:03:10.733Z,101232.32
2018-12-20T06:05:38.036Z,101230.41
2018-12-20T06:08:05.358Z,101230.73
2018-12-20T06:10:32.707Z,101226.75
2018-12-20T06:13:16.953Z,101230.27
2018-12-20T06:15:44.822Z,101233.27
2018-12-20T06:18:12.163Z,101230.52
2018-12-20T06:20:39.532Z,101222.71
2018-12-20T06:23:07.053Z,101224.58
2018-12-20T06:25:34.241Z,101222.12
2018-12-20T06:28:01.444Z,101220.20
2018-12-20T06:30:28.656Z,101223.80
2018-12-20T06:32:55.893Z,101215.98
2018-12-20T06:35:23.101Z,101224.38
2018-12-20T06:37:50.309Z,101221.61
2018-12-20T06:40:17.512Z,101224.70
2018-12-20T06:42:44.717Z,101233.06
2018-12-20T06:45:12.144Z,101231.83
2018-12-20T06:47:39.507Z,101231.02
2018-12-20T06:50:06.713Z,101231.02
2018-12-20T06:52:33.952Z,101234.80
2018-12-20T06:55:01.163Z,101232.46
2018-12-20T06:57:29.565Z,101226.83
2018-12-20T06:59:56.995Z,101226.52
2018-12-20T07:02:24.197Z,101229.38
2018-12-20T07:04:51.396Z,101230.09
2018-12-20T07:07:18.619Z,101226.08
2018-12-20T07:09:45.815Z,101224.89
2018-12-20T07:12:14.072Z,101228.62
2018-12-20T07:14:41.264Z,101227.80
2018-12-20T07:17:09.328Z,101234.58
2018-12-20T07:19:36.516Z,101235.41
2018-12-20T07:22:03.843Z,101241.77
2018-12-20T07:24:31.220Z,101239.94
2018-12-20T07:26:58.436Z,101242.31
2018-12-20T07:29:25.644Z,101232.20
2018-12-20T07:31:52.868Z,101240.16
2018-12-20T07:34:20.060Z,101246.65
2018-12-20T07:36:47.268Z,101239.39
2018-12-20T07:39:14.514Z,101246.91
2018-12-20T07:41:41.780Z,101240.80
2018-12-20T07:44:08.972Z,101237.82
2018-12-20T07:46:38.018Z,101241.62
2018-12-20T07:49:05.508Z,101243.92
2018-12-20T07:51:32.713Z,101243.25
2018-12-20T07:54:00.116Z,101240.59
2018-12-20T07:56:27.337Z,101246.85
2018-12-20T07:58:54.560Z,101248.30
2018-12-20T08:01:21.776Z,101253.00
2018-12-20T08:03:48.968Z,101253.59
2018-12-20T08:06:16.344Z,101252.89
2018-12-20T08:08:43.573Z,101253.38
2018-12-20T08:11:10.776Z,101248.32
2018-12-20T08:13:37.964Z,101249.94
2018-12-20T08:16:05.147Z,101248.04
2018-12-20T08:18:32.340Z,101243.14
2018-12-20T08:20:59.549Z,101243.69
2018-12-20T08:23:26.756Z,101243.27
2018-12-20T08:25:53.992Z,101252.64
2018-12-20T08:28:21.224Z,101254.59
2018-12-20T08:30:48.447Z,101259.03
2018-12-20T08:33:15.661Z,101252.83
2018-12-20T08:35:44.030Z,101258.44
2018-12-20T08:38:12.604Z,101256.23
2018-12-20T08:40:39.832Z,101253.41
2018-12-20T08:43:07.046Z,101264.66
2018-12-20T08:45:34.296Z,101264.56
2018-12-20T08:48:01.530Z,101261.89
2018-12-20T08:50:28.867Z,101267.48
2018-12-20T08:52:56.089Z,101265.30
2018-12-20T08:55:23.329Z,101262.06
2018-12-20T08:57:50.559Z,101264.70
2018-12-20T09:00:17.801Z,101260.44
2018-12-20T09:02:45.004Z,101257.08
2018-12-20T09:05:12.253Z,101258.72
2018-12-20T09:07:39.574Z,101260.21
2018-12-20T09:10:07.012Z,101260.86
2018-12-20T09:12:34.344Z,101260.86
2018-12-20T09:15:01.728Z,101264.94
2018-12-20T09:17:28.935Z,101262.36
2018-12-20T09:19:56.158Z,101266.91
2018-12-20T09:22:23.389Z,101263.24
2018-12-20T09:24:50.592Z,101268.64
2018-12-20T09:27:17.796Z,101265.23
2018-12-20T09:29:45.022Z,101257.17
2018-12-20T09:32:12.452Z,101260.80
2018-12-20T09:34:39.675Z,101274.08
2018-12-20T09:37:06.910Z,101270.69
2018-12-20T09:39:34.141Z,101269.91
2018-12-20T09:42:01.570Z,101270.97
2018-12-20T09:44:28.801Z,101275.31
2018-12-20T09:47:01.750Z,101268.85
2018-12-20T09:49:28.979Z,101263.25
2018-12-20T09:51:56.229Z,101267.22
2018-12-20T09:54:23.449Z,101263.30
2018-12-20T09:56:50.649Z,101266.34
2018-12-20T09:59:17.880Z,101260.70
2018-12-20T10:01:45.097Z,101268.66
2018-12-20T10:04:12.326Z,101257.42
2018-12-20T10:06:39.557Z,101262.38
2018-12-20T10:09:07.108Z,101257.33
2018-12-20T10:11:34.339Z,101252.23
2018-12-20T10:14:01.820Z,101252.50
2018-12-20T10:16:29.036Z,101248.14
2018-12-20T10:18:56.252Z,101248.55
2018-12-20T10:21:23.510Z,101246.27
2018-12-20T10:23:50.729Z,101242.74
2018-12-20T10:26:17.929Z,101247.95
2018-12-20T10:28:45.182Z,101235.66
2018-12-20T10:31:12.399Z,101232.03
2018-12-20T10:33:39.649Z,101238.88
2018-12-20T10:36:06.903Z,101240.55
2018-12-20T10:38:34.104Z,101236.22
2018-12-20T10:41:01.344Z,101226.48
2018-12-20T10:43:28.549Z,101222.28
2018-12-20T10:45:55.772Z,101217.38
2018-12-20T10:48:23.012Z,101220.78
2018-12-20T10:50:50.233Z,101206.39
2018-12-20T10:53:17.443Z,101216.40
2018-12-20T10:55:44.704Z,101219.47
2018-12-20T10:58:12.030Z,101210.54
2018-12-20T11:00:47.217Z,101206.62
2018-12-20T11:03:20.132Z,101207.80
2018-12-20T11:05:53.152Z,101201.30
2018-12-20T11:08:23.532Z,101206.16
2018-12-20T11:10:55.324Z,101203.37
2018-12-20T11:13:24.652Z,101200.88
2018-12-20T11:15:52.136Z,101197.77
2018-12-20T11:18:19.358Z,101191.78
2018-12-20T11:20:46.572Z,101190.03
2018-12-20T11:23:13.768Z,101185.08
2018-12-20T11:25:40.988Z,101191.58
2018-12-20T11:28:08.227Z,101185.30
2018-12-20T11:30:35.432Z,101181.22
2018-12-20T11:33:02.800Z,101184.70
2018-12-20T11:35:30.004Z,101181.52
2018-12-20T11:37:57.303Z,101175.18
2018-12-20T11:40:24.685Z,101175.97
2018-12-20T11:42:51.969Z,101175.39
2018-12-20T11:45:19.177Z,101179.20
2018-12-20T11:47:46.460Z,101170.77
2018-12-20T11:50:14.848Z,101171.67
2018-12-20T11:52:42.646Z,101168.50
2018-12-20T11:55:10.119Z,101167.38
2018-12-20T11:57:37.326Z,101170.03
2018-12-20T12:00:06.900Z,101166.77
2018-12-20T12:02:34.247Z,101171.57
2018-12-20T12:05:01.448Z,101168.62
2018-12-20T12:07:28.673Z,101169.36
2018-12-20T12:09:55.900Z,101160.98
2018-12-20T12:12:23.252Z,101161.47
2018-12-20T12:14:50.524Z,101158.67
2018-12-20T12:17:17.760Z,101156.75
2018-12-20T12:19:44.965Z,101156.38
2018-12-20T12:22:13.297Z,101167.03
2018-12-20T12:24:40.516Z,101158.42
2018-12-20T12:27:07.749Z,101162.97
2018-12-20T12:29:35.091Z,101159.06
2018-12-20T12:32:02.307Z,101157.66
2018-12-20T12:34:29.636Z,101158.69
2018-12-20T12:36:56.879Z,101153.48
2018-12-20T12:39:24.232Z,101147.34
2018-12-20T12:41:51.438Z,101148.84
2018-12-20T12:44:18.692Z,101140.61
2018-12-20T12:46:45.906Z,101136.55
2018-12-20T12:49:13.130Z,101139.33
2018-12-20T12:51:40.328Z,101135.42
2018-12-20T12:54:07.544Z,101135.61
2018-12-20T12:56:34.763Z,101139.90
2018-12-20T12:59:01.974Z,101137.96
2018-12-20T13:01:29.204Z,101129.78
2018-12-20T13:03:57.403Z,101137.86
2018-12-20T13:06:24.762Z,101135.06
2018-12-20T13:08:51.980Z,101140.47
2018-12-20T13:11:19.244Z,101138.59
2018-12-20T13:13:46.482Z,101139.16
2018-12-20T13:16:13.779Z,101143.13
2018-12-20T13:18:42.172Z,101146.98
2018-12-20T13:21:09.416Z,101138.53
2018-12-20T13:23:36.653Z,101139.06
2018-12-20T13:26:03.929Z,101130.98
2018-12-20T13:28:31.144Z,101134.79
2018-12-20T13:30:58.383Z,101130.16
2018-12-20T13:33:25.598Z,101129.85
2018-12-20T13:35:52.866Z,101125.94
2018-12-20T13:38:20.102Z,101130.78
2018-12-20T13:40:47.345Z,101120.94
2018-12-20T13:43:14.598Z,101131.92
2018-12-20T13:45:41.919Z,101124.84
2018-12-20T13:48:09.283Z,101131.35
2018-12-20T13:50:36.508Z,101132.92
2018-12-20T13:53:03.733Z,101128.28
2018-12-20T13:55:30.952Z,101129.12
2018-12-20T13:57:58.160Z,101130.16
2018-12-20T14:00:25.384Z,101126.24
2018-12-20T14:02:52.597Z,101130.62
2018-12-20T14:05:19.833Z,101126.72
2018-12-20T14:07:47.061Z,101128.37
2018-12-20T14:10:14.316Z,101126.88
2018-12-20T14:12:41.537Z,101129.48
2018-12-20T14:15:08.771Z,101132.09
2018-12-20T14:17:35.980Z,101135.26
2018-12-20T14:20:04.144Z,101126.51
2018-12-20T14:22:31.365Z,101131.25
2018-12-20T14:24:58.586Z,101138.80
2018-12-20T14:27:25.812Z,101135.72
2018-12-20T14:29:53.252Z,101140.27
2018-12-20T14:32:20.518Z,101136.19
2018-12-20T14:34:47.737Z,101144.17
2018-12-20T14:37:14.948Z,101135.83
2018-12-20T14:39:42.188Z,101132.47
2018-12-20T14:42:09.617Z,101133.95
2018-12-20T14:44:36.837Z,101137.20
2018-12-20T14:47:04.061Z,101139.26
2018-12-20T14:49:31.327Z,101139.53
2018-12-20T14:51:58.587Z,101144.53
2018-12-20T14:54:27.374Z,101142.34
2018-12-20T14:56:54.761Z,101143.80
2018-12-20T14:59:21.992Z,101149.37
2018-12-20T15:01:49.200Z,101152.72
2018-12-20T15:04:16.428Z,101154.59
2018-12-20T15:06:43.647Z,101150.78
2018-12-20T15:09:10.888Z,101153.69
2018-12-20T15:11:38.114Z,101155.98
2018-12-20T15:14:05.363Z,101151.70
2018-12-20T15:16:33.620Z,101163.44
2018-12-20T15:19:00.842Z,101162.13
2018-12-20T15:21:28.260Z,101163.44
2018-12-20T15:23:55.501Z,101169.47
2018-12-20T15:26:22.750Z,101170.67
2018-12-20T15:28:52.116Z,101173.55
2018-12-20T15:31:19.440Z,101176.35
2018-12-20T15:33:46.853Z,101177.86
2018-12-20T15:36:14.149Z,101171.81
2018-12-20T15:38:41.368Z,101166.77
2018-12-20T15:41:08.833Z,101167.44
2018-12-20T15:43:36.094Z,101165.56
2018-12-20T15:46:03.572Z,101163.16
2018-12-20T15:48:31.028Z,101163.33
2018-12-20T15:50:58.456Z,101155.16
2018-12-20T15:53:25.788Z,101158.75
2018-12-20T15:55:53.029Z,101157.75
2018-12-20T15:58:20.310Z,101160.72
2018-12-20T16:00:47.549Z,101158.13
2018-12-20T16:03:14.777Z,101156.26
2018-12-20T16:05:42.272Z,101159.80
2018-12-20T16:08:09.596Z,101155.79
2018-12-20T16:10:36.862Z,101156.81
2018-12-20T16:13:05.132Z,101144.17
2018-12-20T16:15:32.366Z,101146.50
2018-12-20T16:17:59.640Z,101142.86
2018-12-20T16:20:26.866Z,101139.80
2018-12-20T16:22:55.152Z,101131.88
2018-12-20T16:25:22.469Z,101133.13
2018-12-20T16:27:50.762Z,101131.61
2018-12-20T16:30:17.980Z,101128.75
2018-12-20T16:32:45.363Z,101128.08
2018-12-20T16:35:12.635Z,101123.91
2018-12-20T16:37:39.876Z,101121.04
2018-12-20T16:40:07.209Z,101120.83
2018-12-20T16:42:34.557Z,101124.67
2018-12-20T16:45:01.790Z,101124.94
2018-12-20T16:47:29.000Z,101127.73
2018-12-20T16:49:56.245Z,101133.22
2018-12-20T16:52:23.448Z,101127.83
2018-12-20T16:54:50.676Z,101125.60
2018-12-20T16:57:17.876Z,101129.30
2018-12-20T16:59:45.900Z,101132.37
2018-12-20T17:02:13.120Z,101132.84
2018-12-20T17:04:40.573Z,101134.52
2018-12-20T17:07:07.781Z,101134.59
2018-12-20T17:09:35.035Z,101126.80
2018-12-20T17:12:02.235Z,101134.14
2018-12-20T17:14:29.480Z,101138.13
2018-12-20T17:16:57.033Z,101139.43
2018-12-20T17:19:24.244Z,101137.86
2018-12-20T17:21:51.452Z,101135.26
2018-12-20T17:24:18.694Z,101128.95
2018-12-20T17:26:46.245Z,101128.75
2018-12-20T17:29:13.564Z,101133.13
2018-12-20T17:31:40.940Z,101125.05
2018-12-20T17:34:08.264Z,101131.55
2018-12-20T17:36:35.787Z,101123.54
2018-12-20T17:39:05.277Z,101125.11
2018-12-20T17:41:32.714Z,101122.70
2018-12-20T17:43:59.958Z,101119.73
2018-12-20T17:46:27.196Z,101115.47
2018-12-20T17:48:55.512Z,101110.89
2018-12-20T17:51:22.864Z,101121.87
2018-12-20T17:53:50.196Z,101119.06
2018-12-20T17:56:17.538Z,101115.00
2018-12-20T17:58:44.908Z,101127.81
2018-12-20T18:01:12.237Z,101121.31
2018-12-20T18:03:39.549Z,101135.83
2018-12-20T18:06:07.913Z,101124.11
2018-12-20T18:08:35.144Z,101125.21
2018-12-20T18:11:02.389Z,101120.73
2018-12-20T18:13:29.745Z,101118.50
2018-12-20T18:15:56.981Z,101121.67
2018-12-20T18:18:25.337Z,101121.67
2018-12-20T18:20:52.564Z,101121.87
2018-12-20T18:23:19.780Z,101120.94
2018-12-20T18:25:47.120Z,101119.33
2018-12-20T18:28:15.442Z,101119.44
2018-12-20T18:30:42.664Z,101111.00
2018-12-20T18:33:09.886Z,101107.55
2018-12-20T18:35:37.297Z,101099.02
2018-12-20T18:38:04.665Z,101093.04
2018-12-20T18:40:32.017Z,101099.55
2018-12-20T18:42:59.344Z,101103.45
2018-12-20T18:45:26.572Z,101107.25
2018-12-20T18:47:55.029Z,101105.59
2018-12-20T18:50:22.381Z,101101.78
2018-12-20T18:52:49.712Z,101102.34
2018-12-20T18:55:16.945Z,101105.52
2018-12-20T18:57:44.152Z,101106.82
2018-12-20T19:00:11.632Z,101104.75
2018-12-20T19:02:39.334Z,101107.82
2018-12-20T19:05:07.485Z,101103.84
2018-12-20T19:07:36.132Z,101103.74
2018-12-20T19:10:04.146Z,101098.64
2018-12-20T19:12:31.484Z,101098.07
2018-12-20T19:14:58.846Z,101097.70
2018-12-20T19:17:26.069Z,101095.67
2018-12-20T19:19:56.298Z,101095.67
2018-12-20T19:22:22.544Z,101092.59
2018-12-20T19:24:49.768Z,101094.84
2018-12-20T19:27:17.167Z,101095.84
2018-12-20T19:29:44.400Z,101100.68
2018-12-20T19:32:11.620Z,101094.27
2018-12-20T19:34:38.821Z,101091.00
2018-12-20T19:37:06.055Z,101095.84
2018-12-20T19:39:33.609Z,101090.64
2018-12-20T19:42:06.305Z,101086.20
2018-12-20T19:44:34.656Z,101093.44
2018-12-20T19:47:01.852Z,101093.06
2018-12-20T19:49:29.172Z,101088.59
2018-12-20T19:51:56.429Z,101094.44
2018-12-20T19:54:23.640Z,101088.40
2018-12-20T19:56:50.860Z,101087.03
2018-12-20T19:59:18.104Z,101085.06
2018-12-20T20:01:45.316Z,101084.86
2018-12-20T20:04:12.528Z,101077.26
2018-12-20T20:06:39.872Z,101085.44
2018-12-20T20:09:07.217Z,101075.95
2018-12-20T20:11:34.573Z,101083.03
2018-12-20T20:14:01.816Z,101080.33
2018-12-20T20:16:29.052Z,101082.09
2018-12-20T20:18:56.264Z,101075.39
2018-12-20T20:21:23.520Z,101077.52
2018-12-20T20:23:50.761Z,101071.31
2018-12-20T20:26:17.968Z,101067.05
2018-12-20T20:28:45.237Z,101056.07
2018-12-20T20:31:12.568Z,101051.50
2018-12-20T20:33:39.952Z,101048.36
2018-12-20T20:36:07.210Z,101050.50
2018-12-20T20:38:34.533Z,101050.86
2018-12-20T20:41:01.944Z,101051.43
2018-12-20T20:43:29.285Z,101050.87
2018-12-20T20:45:56.504Z,101050.30
2018-12-20T20:48:23.731Z,101047.53
2018-12-20T20:50:50.984Z,101056.91
2018-12-20T20:53:18.324Z,101045.66
2018-12-20T20:55:45.742Z,101041.86
2018-12-20T20:58:12.952Z,101048.83
2018-12-20T21:00:40.416Z,101040.35
2018-12-20T21:03:07.770Z,101043.06
2018-12-20T21:05:35.113Z,101040.92
2018-12-20T21:08:02.503Z,101038.06
2018-12-20T21:10:29.844Z,101034.79
2018-12-20T21:12:57.039Z,101030.98
2018-12-20T21:15:24.248Z,101034.16
2018-12-20T21:17:51.577Z,101029.48
2018-12-20T21:20:18.785Z,101032.09
2018-12-20T21:22:46.012Z,101038.42
2018-12-20T21:25:13.245Z,101034.41
2018-12-20T21:27:40.465Z,101033.36
2018-12-20T21:30:08.897Z,101036.81
2018-12-20T21:32:36.244Z,101034.67
2018-12-20T21:35:04.014Z,101029.47
2018-12-20T21:37:31.360Z,101024.47
2018-12-20T21:39:58.712Z,101024.73
2018-12-20T21:42:25.959Z,101029.46
2018-12-20T21:44:53.177Z,101019.14
2018-12-20T21:47:20.424Z,101020.13
2018-12-20T21:49:47.636Z,101020.77
2018-12-20T21:52:14.840Z,101017.27
2018-12-20T21:54:42.085Z,101019.03
2018-12-20T21:57:09.288Z,101014.17
2018-12-20T21:59:36.720Z,101014.31
2018-12-20T22:02:06.524Z,101016.77
2018-12-20T22:04:37.560Z,101013.37
2018-12-20T22:07:05.012Z,101022.92
2018-12-20T22:09:32.232Z,101019.77
2018-12-20T22:11:59.461Z,101021.16
2018-12-20T22:14:26.672Z,101015.42
2018-12-20T22:16:53.873Z,101014.21
2018-12-20T22:19:21.098Z,101017.25
2018-12-20T22:21:48.305Z,101019.16
2018-12-20T22:24:15.572Z,101015.64
2018-12-20T22:26:42.800Z,101010.23
2018-12-20T22:29:10.036Z,101015.09
2018-12-20T22:31:37.240Z,101008.09
2018-12-20T22:34:04.456Z,101011.67
2018-12-20T22:36:31.685Z,100999.28
2018-12-20T22:38:58.913Z,101001.89
2018-12-20T22:41:26.160Z,101002.95
2018-12-20T22:43:53.408Z,101002.91
2018-12-20T22:46:20.605Z,101005.86
2018-12-20T22:48:47.816Z,101009.70
2018-12-20T22:51:15.308Z,101002.61
2018-12-20T22:53:42.538Z,100999.52
2018-12-20T22:56:09.781Z,101000.33
2018-12-20T22:58:37.172Z,100990.48
2018-12-20T23:01:04.412Z,100991.66
2018-12-20T23:03:31.744Z,100997.98
2018-12-20T23:05:58.973Z,100993.66
2018-12-20T23:08:26.396Z,100992.56
2018-12-20T23:10:53.633Z,100985.22
2018-12-20T23:13:20.881Z,100976.34
2018-12-20T23:15:48.198Z,100976.19
2018-12-20T23:18:15.524Z,100976.34
2018-12-20T23:20:43.597Z,100977.88
2018-12-20T23:23:10.836Z,100976.28
2018-12-20T23:25:38.116Z,100971.41
2018-12-20T23:28:05.442Z,100972.80
2018-12-20T23:30:32.693Z,100967.98
2018-12-20T23:32:59.920Z,100965.35
2018-12-20T23:35:27.376Z,100965.58
2018-12-20T23:37:54.580Z,100961.56
2018-12-20T23:40:21.955Z,100959.67
2018-12-20T23:42:49.159Z,100954.25
2018-12-20T23:45:16.533Z,100956.05
2018-12-20T23:47:43.824Z,100953.31
2018-12-20T23:50:11.099Z,100958.12
2018-12-20T23:52:38.337Z,100951.97
2018-12-20T23:55:05.693Z,100945.97
2018-12-20T23:57:32.901Z,100937.61
